sensor_id;sensor_type;location;lat;lon;timestamp;P1;durP1;ratioP1;P2;durP2;ratioP2
19221;SDS011;9745;50.828;4.378;2023-04-01T00:02:11;23.13;;;8.17;;
19221;SDS011;9745;50.828;4.378;2023-04-01T00:04:36;18.83;;;7.77;;
19221;SDS011;9745;50.828;4.378;2023-04-01T00:07:02;12.70;;;4.60;;
19221;SDS011;9745;50.828;4.378;2023-04-01T00:09:29;11.67;;;2.60;;
19221;SDS011;9745;50.828;4.378;2023-04-01T00:11:55;8.30;;;3.20;;
19221;SDS011;9745;50.828;4.378;2023-04-01T00:14:21;11.40;;;3.43;;
19221;SDS011;9745;50.828;4.378;2023-04-01T00:16:47;10.93;;;3.37;;
19221;SDS011;9745;50.828;4.378;2023-04-01T00:19:13;10.20;;;3.10;;
19221;SDS011;9745;50.828;4.378;2023-04-01T00:21:40;13.10;;;2.70;;
19221;SDS011;9745;50.828;4.378;2023-04-01T00:24:06;5.60;;;2.10;;
19221;SDS011;9745;50.828;4.378;2023-04-01T00:26:32;11.97;;;3.87;;
19221;SDS011;9745;50.828;4.378;2023-04-01T00:28:58;12.83;;;4.50;;
19221;SDS011;9745;50.828;4.378;2023-04-01T00:31:25;13.30;;;3.40;;
19221;SDS011;9745;50.828;4.378;2023-04-01T00:33:51;14.03;;;4.13;;
19221;SDS011;9745;50.828;4.378;2023-04-01T00:36:18;7.10;;;2.20;;
19221;SDS011;9745;50.828;4.378;2023-04-01T00:38:44;11.13;;;3.10;;
19221;SDS011;9745;50.828;4.378;2023-04-01T00:41:12;15.87;;;5.83;;
19221;SDS011;9745;50.828;4.378;2023-04-01T00:43:40;9.70;;;3.97;;
19221;SDS011;9745;50.828;4.378;2023-04-01T00:46:06;9.13;;;3.20;;
19221;SDS011;9745;50.828;4.378;2023-04-01T00:48:36;9.47;;;3.40;;
19221;SDS011;9745;50.828;4.378;2023-04-01T00:53:33;4.57;;;2.17;;
19221;SDS011;9745;50.828;4.378;2023-04-01T00:56:00;9.00;;;3.27;;
19221;SDS011;9745;50.828;4.378;2023-04-01T00:58:29;12.37;;;4.93;;
19221;SDS011;9745;50.828;4.378;2023-04-01T01:00:55;5.33;;;3.33;;
19221;SDS011;9745;50.828;4.378;2023-04-01T01:03:22;10.53;;;3.30;;
19221;SDS011;9745;50.828;4.378;2023-04-01T01:08:27;7.37;;;3.00;;
19221;SDS011;9745;50.828;4.378;2023-04-01T01:10:57;10.90;;;2.37;;
19221;SDS011;9745;50.828;4.378;2023-04-01T01:13:32;10.40;;;3.77;;
19221;SDS011;9745;50.828;4.378;2023-04-01T01:16:01;6.60;;;3.77;;
19221;SDS011;9745;50.828;4.378;2023-04-01T01:18:35;8.33;;;6.23;;
19221;SDS011;9745;50.828;4.378;2023-04-01T01:26:46;4.40;;;2.17;;
19221;SDS011;9745;50.828;4.378;2023-04-01T01:32:03;3.83;;;1.80;;
19221;SDS011;9745;50.828;4.378;2023-04-01T01:37:12;6.67;;;3.03;;
19221;SDS011;9745;50.828;4.378;2023-04-01T01:39:40;9.13;;;3.90;;
19221;SDS011;9745;50.828;4.378;2023-04-01T01:42:08;14.47;;;6.43;;
19221;SDS011;9745;50.828;4.378;2023-04-01T01:44:35;7.40;;;2.87;;
19221;SDS011;9745;50.828;4.378;2023-04-01T01:47:02;17.70;;;3.87;;
19221;SDS011;9745;50.828;4.378;2023-04-01T01:49:28;13.40;;;5.27;;
19221;SDS011;9745;50.828;4.378;2023-04-01T01:51:56;9.97;;;5.27;;
19221;SDS011;9745;50.828;4.378;2023-04-01T01:54:22;10.73;;;6.20;;
19221;SDS011;9745;50.828;4.378;2023-04-01T01:56:50;25.43;;;13.77;;
19221;SDS011;9745;50.828;4.378;2023-04-01T01:59:17;4.80;;;3.40;;
19221;SDS011;9745;50.828;4.378;2023-04-01T02:01:47;8.67;;;3.77;;
19221;SDS011;9745;50.828;4.378;2023-04-01T02:04:14;6.50;;;3.23;;
19221;SDS011;9745;50.828;4.378;2023-04-01T02:06:42;9.90;;;4.03;;
19221;SDS011;9745;50.828;4.378;2023-04-01T02:09:10;9.27;;;4.57;;
19221;SDS011;9745;50.828;4.378;2023-04-01T02:11:38;12.30;;;5.77;;
19221;SDS011;9745;50.828;4.378;2023-04-01T02:14:07;9.60;;;5.03;;
19221;SDS011;9745;50.828;4.378;2023-04-01T02:16:38;11.20;;;3.57;;
19221;SDS011;9745;50.828;4.378;2023-04-01T02:19:06;11.10;;;5.90;;
19221;SDS011;9745;50.828;4.378;2023-04-01T02:21:33;9.23;;;5.77;;
19221;SDS011;9745;50.828;4.378;2023-04-01T02:24:00;10.33;;;4.00;;
19221;SDS011;9745;50.828;4.378;2023-04-01T02:26:26;11.00;;;4.77;;
19221;SDS011;9745;50.828;4.378;2023-04-01T02:28:53;11.73;;;4.90;;
19221;SDS011;9745;50.828;4.378;2023-04-01T02:31:19;11.97;;;3.90;;
19221;SDS011;9745;50.828;4.378;2023-04-01T02:33:45;11.60;;;4.60;;
19221;SDS011;9745;50.828;4.378;2023-04-01T02:36:12;10.83;;;5.17;;
19221;SDS011;9745;50.828;4.378;2023-04-01T02:38:38;10.60;;;4.30;;
19221;SDS011;9745;50.828;4.378;2023-04-01T02:41:05;11.50;;;4.47;;
19221;SDS011;9745;50.828;4.378;2023-04-01T02:43:31;9.47;;;4.50;;
19221;SDS011;9745;50.828;4.378;2023-04-01T02:45:57;9.03;;;4.07;;
19221;SDS011;9745;50.828;4.378;2023-04-01T02:48:23;11.13;;;4.20;;
19221;SDS011;9745;50.828;4.378;2023-04-01T02:50:49;18.20;;;4.37;;
19221;SDS011;9745;50.828;4.378;2023-04-01T02:53:15;9.87;;;3.63;;
19221;SDS011;9745;50.828;4.378;2023-04-01T02:55:41;12.33;;;5.17;;
19221;SDS011;9745;50.828;4.378;2023-04-01T02:58:07;15.10;;;4.50;;
19221;SDS011;9745;50.828;4.378;2023-04-01T03:00:33;19.63;;;7.43;;
19221;SDS011;9745;50.828;4.378;2023-04-01T03:03:00;22.03;;;7.23;;
19221;SDS011;9745;50.828;4.378;2023-04-01T03:05:27;13.00;;;4.97;;
19221;SDS011;9745;50.828;4.378;2023-04-01T03:07:53;9.60;;;4.10;;
19221;SDS011;9745;50.828;4.378;2023-04-01T03:10:19;11.20;;;4.37;;
19221;SDS011;9745;50.828;4.378;2023-04-01T03:12:45;10.67;;;4.30;;
19221;SDS011;9745;50.828;4.378;2023-04-01T03:15:11;8.23;;;4.53;;
19221;SDS011;9745;50.828;4.378;2023-04-01T03:17:39;11.30;;;4.60;;
19221;SDS011;9745;50.828;4.378;2023-04-01T03:20:05;11.33;;;4.67;;
19221;SDS011;9745;50.828;4.378;2023-04-01T03:22:33;7.90;;;4.10;;
19221;SDS011;9745;50.828;4.378;2023-04-01T03:24:59;11.20;;;4.73;;
19221;SDS011;9745;50.828;4.378;2023-04-01T03:27:25;12.80;;;4.97;;
19221;SDS011;9745;50.828;4.378;2023-04-01T03:29:51;12.73;;;4.90;;
19221;SDS011;9745;50.828;4.378;2023-04-01T03:32:17;9.87;;;5.03;;
19221;SDS011;9745;50.828;4.378;2023-04-01T03:34:43;12.47;;;4.60;;
19221;SDS011;9745;50.828;4.378;2023-04-01T03:37:09;14.23;;;5.87;;
19221;SDS011;9745;50.828;4.378;2023-04-01T03:39:35;13.53;;;5.40;;
19221;SDS011;9745;50.828;4.378;2023-04-01T03:42:01;14.90;;;5.97;;
19221;SDS011;9745;50.828;4.378;2023-04-01T03:44:30;12.87;;;6.03;;
19221;SDS011;9745;50.828;4.378;2023-04-01T03:46:57;16.73;;;6.50;;
19221;SDS011;9745;50.828;4.378;2023-04-01T03:49:23;14.00;;;5.10;;
19221;SDS011;9745;50.828;4.378;2023-04-01T03:51:49;15.27;;;6.07;;
19221;SDS011;9745;50.828;4.378;2023-04-01T03:54:15;16.00;;;5.70;;
19221;SDS011;9745;50.828;4.378;2023-04-01T03:56:42;10.80;;;5.10;;
19221;SDS011;9745;50.828;4.378;2023-04-01T03:59:08;11.10;;;5.50;;
19221;SDS011;9745;50.828;4.378;2023-04-01T04:01:34;13.70;;;6.10;;
19221;SDS011;9745;50.828;4.378;2023-04-01T04:04:00;14.27;;;5.27;;
19221;SDS011;9745;50.828;4.378;2023-04-01T04:06:26;18.00;;;6.30;;
19221;SDS011;9745;50.828;4.378;2023-04-01T04:08:53;11.07;;;5.10;;
19221;SDS011;9745;50.828;4.378;2023-04-01T04:11:19;14.10;;;5.33;;
19221;SDS011;9745;50.828;4.378;2023-04-01T04:13:45;15.00;;;5.70;;
19221;SDS011;9745;50.828;4.378;2023-04-01T04:16:13;9.07;;;4.77;;
19221;SDS011;9745;50.828;4.378;2023-04-01T04:18:39;15.87;;;4.90;;
19221;SDS011;9745;50.828;4.378;2023-04-01T04:21:05;6.57;;;4.40;;
19221;SDS011;9745;50.828;4.378;2023-04-01T04:23:31;10.73;;;4.80;;
19221;SDS011;9745;50.828;4.378;2023-04-01T04:26:02;10.20;;;4.67;;
19221;SDS011;9745;50.828;4.378;2023-04-01T04:28:29;11.40;;;4.50;;
19221;SDS011;9745;50.828;4.378;2023-04-01T04:30:55;8.90;;;4.43;;
19221;SDS011;9745;50.828;4.378;2023-04-01T04:33:22;11.57;;;4.93;;
19221;SDS011;9745;50.828;4.378;2023-04-01T04:35:48;8.60;;;3.90;;
19221;SDS011;9745;50.828;4.378;2023-04-01T04:38:14;7.20;;;4.27;;
19221;SDS011;9745;50.828;4.378;2023-04-01T04:40:41;6.93;;;3.73;;
19221;SDS011;9745;50.828;4.378;2023-04-01T04:43:07;7.73;;;3.83;;
19221;SDS011;9745;50.828;4.378;2023-04-01T04:45:35;6.23;;;3.50;;
19221;SDS011;9745;50.828;4.378;2023-04-01T04:48:01;6.53;;;3.77;;
19221;SDS011;9745;50.828;4.378;2023-04-01T04:50:27;9.37;;;3.23;;
19221;SDS011;9745;50.828;4.378;2023-04-01T04:52:53;7.30;;;3.53;;
19221;SDS011;9745;50.828;4.378;2023-04-01T04:55:19;10.30;;;3.70;;
19221;SDS011;9745;50.828;4.378;2023-04-01T04:57:45;7.13;;;3.17;;
19221;SDS011;9745;50.828;4.378;2023-04-01T05:00:11;8.00;;;3.33;;
19221;SDS011;9745;50.828;4.378;2023-04-01T05:02:38;9.10;;;4.07;;
19221;SDS011;9745;50.828;4.378;2023-04-01T05:05:04;7.57;;;3.70;;
19221;SDS011;9745;50.828;4.378;2023-04-01T05:07:30;6.97;;;3.20;;
19221;SDS011;9745;50.828;4.378;2023-04-01T05:09:56;6.33;;;3.23;;
19221;SDS011;9745;50.828;4.378;2023-04-01T05:12:22;4.60;;;2.97;;
19221;SDS011;9745;50.828;4.378;2023-04-01T05:14:48;5.93;;;3.40;;
19221;SDS011;9745;50.828;4.378;2023-04-01T05:17:14;6.67;;;3.30;;
19221;SDS011;9745;50.828;4.378;2023-04-01T05:19:40;6.17;;;3.33;;
19221;SDS011;9745;50.828;4.378;2023-04-01T05:22:06;7.97;;;3.57;;
19221;SDS011;9745;50.828;4.378;2023-04-01T05:24:32;8.67;;;3.87;;
19221;SDS011;9745;50.828;4.378;2023-04-01T05:26:58;7.63;;;3.63;;
19221;SDS011;9745;50.828;4.378;2023-04-01T05:29:25;7.30;;;4.00;;
19221;SDS011;9745;50.828;4.378;2023-04-01T05:31:51;10.77;;;4.00;;
19221;SDS011;9745;50.828;4.378;2023-04-01T05:34:17;9.30;;;4.43;;
19221;SDS011;9745;50.828;4.378;2023-04-01T05:36:43;8.33;;;4.43;;
19221;SDS011;9745;50.828;4.378;2023-04-01T05:39:10;12.00;;;5.07;;
19221;SDS011;9745;50.828;4.378;2023-04-01T05:41:36;12.23;;;4.90;;
19221;SDS011;9745;50.828;4.378;2023-04-01T05:44:02;10.97;;;4.67;;
19221;SDS011;9745;50.828;4.378;2023-04-01T05:46:28;10.13;;;4.70;;
19221;SDS011;9745;50.828;4.378;2023-04-01T05:48:54;9.53;;;5.23;;
19221;SDS011;9745;50.828;4.378;2023-04-01T05:51:20;11.30;;;5.27;;
19221;SDS011;9745;50.828;4.378;2023-04-01T05:53:46;11.77;;;5.27;;
19221;SDS011;9745;50.828;4.378;2023-04-01T05:56:12;8.67;;;5.73;;
19221;SDS011;9745;50.828;4.378;2023-04-01T05:58:38;15.90;;;6.03;;
19221;SDS011;9745;50.828;4.378;2023-04-01T06:01:06;16.77;;;5.97;;
19221;SDS011;9745;50.828;4.378;2023-04-01T06:03:32;14.97;;;6.27;;
19221;SDS011;9745;50.828;4.378;2023-04-01T06:05:58;12.93;;;5.93;;
19221;SDS011;9745;50.828;4.378;2023-04-01T06:08:26;9.17;;;6.03;;
19221;SDS011;9745;50.828;4.378;2023-04-01T06:11:04;12.57;;;6.90;;
19221;SDS011;9745;50.828;4.378;2023-04-01T06:16:07;11.10;;;6.90;;
19221;SDS011;9745;50.828;4.378;2023-04-01T06:24:19;15.63;;;7.00;;
19221;SDS011;9745;50.828;4.378;2023-04-01T06:40:03;13.00;;;6.70;;
19221;SDS011;9745;50.828;4.378;2023-04-01T06:42:51;15.30;;;7.73;;
19221;SDS011;9745;50.828;4.378;2023-04-01T06:45:36;13.27;;;6.27;;
19221;SDS011;9745;50.828;4.378;2023-04-01T06:50:42;11.90;;;6.77;;
19221;SDS011;9745;50.828;4.378;2023-04-01T06:53:18;12.63;;;7.57;;
19221;SDS011;9745;50.828;4.378;2023-04-01T06:55:47;9.17;;;5.57;;
19221;SDS011;9745;50.828;4.378;2023-04-01T06:58:26;10.63;;;6.37;;
19221;SDS011;9745;50.828;4.378;2023-04-01T07:00:53;10.60;;;6.30;;
19221;SDS011;9745;50.828;4.378;2023-04-01T07:03:26;13.27;;;6.00;;
19221;SDS011;9745;50.828;4.378;2023-04-01T07:05:56;12.13;;;5.00;;
19221;SDS011;9745;50.828;4.378;2023-04-01T07:08:24;12.20;;;5.60;;
19221;SDS011;9745;50.828;4.378;2023-04-01T07:18:54;9.57;;;4.23;;
19221;SDS011;9745;50.828;4.378;2023-04-01T07:21:26;6.37;;;4.10;;
19221;SDS011;9745;50.828;4.378;2023-04-01T07:23:56;6.40;;;3.73;;
19221;SDS011;9745;50.828;4.378;2023-04-01T07:26:23;6.30;;;3.53;;
19221;SDS011;9745;50.828;4.378;2023-04-01T07:28:50;6.53;;;3.27;;
19221;SDS011;9745;50.828;4.378;2023-04-01T07:31:37;7.03;;;3.10;;
19221;SDS011;9745;50.828;4.378;2023-04-01T07:36:42;7.13;;;3.50;;
19221;SDS011;9745;50.828;4.378;2023-04-01T07:44:50;6.03;;;2.87;;
19221;SDS011;9745;50.828;4.378;2023-04-01T07:46:55;6.77;;;3.73;;
19221;SDS011;9745;50.828;4.378;2023-04-01T07:52:08;6.97;;;2.93;;
19221;SDS011;9745;50.828;4.378;2023-04-01T07:57:12;1.80;;;1.60;;
19221;SDS011;9745;50.828;4.378;2023-04-01T07:59:59;2.53;;;1.17;;
19221;SDS011;9745;50.828;4.378;2023-04-01T08:02:34;2.20;;;1.27;;
19221;SDS011;9745;50.828;4.378;2023-04-01T08:05:05;1.23;;;1.10;;
19221;SDS011;9745;50.828;4.378;2023-04-01T08:15:37;2.63;;;1.50;;
19221;SDS011;9745;50.828;4.378;2023-04-01T08:23:49;2.87;;;2.23;;
19221;SDS011;9745;50.828;4.378;2023-04-01T08:25:51;3.17;;;1.40;;
19221;SDS011;9745;50.828;4.378;2023-04-01T08:28:24;3.07;;;1.70;;
19221;SDS011;9745;50.828;4.378;2023-04-01T08:30:56;2.90;;;1.30;;
19221;SDS011;9745;50.828;4.378;2023-04-01T08:33:28;2.70;;;1.37;;
19221;SDS011;9745;50.828;4.378;2023-04-01T08:35:57;2.50;;;1.43;;
19221;SDS011;9745;50.828;4.378;2023-04-01T08:39:11;1.90;;;1.37;;
19221;SDS011;9745;50.828;4.378;2023-04-01T08:41:24;3.07;;;1.67;;
19221;SDS011;9745;50.828;4.378;2023-04-01T08:56:34;1.20;;;1.07;;
19221;SDS011;9745;50.828;4.378;2023-04-01T09:06:26;3.47;;;1.30;;
19221;SDS011;9745;50.828;4.378;2023-04-01T09:11:28;1.77;;;1.37;;
19221;SDS011;9745;50.828;4.378;2023-04-01T09:30:33;4.40;;;2.03;;
19221;SDS011;9745;50.828;4.378;2023-04-01T09:43:40;3.30;;;1.50;;
19221;SDS011;9745;50.828;4.378;2023-04-01T10:12:33;3.53;;;1.70;;
19221;SDS011;9745;50.828;4.378;2023-04-01T10:15:18;2.73;;;1.70;;
19221;SDS011;9745;50.828;4.378;2023-04-01T10:27:53;2.10;;;1.67;;
19221;SDS011;9745;50.828;4.378;2023-04-01T10:35:50;1.97;;;1.53;;
19221;SDS011;9745;50.828;4.378;2023-04-01T10:54:58;1.90;;;1.03;;
19221;SDS011;9745;50.828;4.378;2023-04-01T10:57:02;2.43;;;1.30;;
19221;SDS011;9745;50.828;4.378;2023-04-01T10:59:42;3.50;;;1.40;;
19221;SDS011;9745;50.828;4.378;2023-04-01T11:02:33;2.93;;;1.70;;
19221;SDS011;9745;50.828;4.378;2023-04-01T11:08:03;5.03;;;3.30;;
19221;SDS011;9745;50.828;4.378;2023-04-01T11:23:46;6.40;;;1.90;;
19221;SDS011;9745;50.828;4.378;2023-04-01T11:36:59;3.83;;;1.93;;
19221;SDS011;9745;50.828;4.378;2023-04-01T11:44:22;2.57;;;1.77;;
19221;SDS011;9745;50.828;4.378;2023-04-01T11:49:36;3.40;;;1.60;;
19221;SDS011;9745;50.828;4.378;2023-04-01T11:54:41;4.00;;;1.70;;
19221;SDS011;9745;50.828;4.378;2023-04-01T11:59:56;3.40;;;1.70;;
19221;SDS011;9745;50.828;4.378;2023-04-01T12:07:53;2.07;;;1.50;;
19221;SDS011;9745;50.828;4.378;2023-04-01T12:26:19;6.57;;;1.93;;
19221;SDS011;9745;50.828;4.378;2023-04-01T12:29:06;2.70;;;1.83;;
19221;SDS011;9745;50.828;4.378;2023-04-01T12:31:57;5.27;;;2.13;;
19221;SDS011;9745;50.828;4.378;2023-04-01T12:37:17;3.30;;;1.97;;
19221;SDS011;9745;50.828;4.378;2023-04-01T12:48:06;3.17;;;2.00;;
19221;SDS011;9745;50.828;4.378;2023-04-01T12:55:50;5.27;;;2.20;;
19221;SDS011;9745;50.828;4.378;2023-04-01T13:14:32;3.00;;;2.07;;
19221;SDS011;9745;50.828;4.378;2023-04-01T13:17:22;6.00;;;2.30;;
19221;SDS011;9745;50.828;4.378;2023-04-01T13:19:54;2.97;;;1.70;;
19221;SDS011;9745;50.828;4.378;2023-04-01T13:25:10;4.17;;;1.70;;
19221;SDS011;9745;50.828;4.378;2023-04-01T13:27:46;3.37;;;1.70;;
19221;SDS011;9745;50.828;4.378;2023-04-01T13:30:19;2.70;;;2.00;;
19221;SDS011;9745;50.828;4.378;2023-04-01T13:32:52;4.00;;;2.20;;
19221;SDS011;9745;50.828;4.378;2023-04-01T13:35:40;4.90;;;2.17;;
19221;SDS011;9745;50.828;4.378;2023-04-01T13:40:46;2.93;;;1.77;;
19221;SDS011;9745;50.828;4.378;2023-04-01T13:56:10;2.07;;;1.50;;
19221;SDS011;9745;50.828;4.378;2023-04-01T13:58:52;2.23;;;1.63;;
19221;SDS011;9745;50.828;4.378;2023-04-01T14:03:57;1.63;;;1.50;;
19221;SDS011;9745;50.828;4.378;2023-04-01T14:09:19;1.83;;;1.03;;
19221;SDS011;9745;50.828;4.378;2023-04-01T14:12:06;1.67;;;1.10;;
19221;SDS011;9745;50.828;4.378;2023-04-01T14:14:37;2.23;;;1.10;;
19221;SDS011;9745;50.828;4.378;2023-04-01T14:17:10;1.50;;;1.10;;
19221;SDS011;9745;50.828;4.378;2023-04-01T14:19:44;2.40;;;1.17;;
19221;SDS011;9745;50.828;4.378;2023-04-01T14:30:04;1.93;;;1.20;;
19221;SDS011;9745;50.828;4.378;2023-04-01T14:32:45;1.90;;;1.50;;
19221;SDS011;9745;50.828;4.378;2023-04-01T14:35:21;3.03;;;1.07;;
19221;SDS011;9745;50.828;4.378;2023-04-01T14:43:24;1.73;;;1.30;;
19221;SDS011;9745;50.828;4.378;2023-04-01T14:48:39;1.80;;;1.10;;
19221;SDS011;9745;50.828;4.378;2023-04-01T14:51:16;2.23;;;1.00;;
19221;SDS011;9745;50.828;4.378;2023-04-01T14:53:58;1.37;;;0.80;;
19221;SDS011;9745;50.828;4.378;2023-04-01T14:57:27;2.27;;;1.10;;
19221;SDS011;9745;50.828;4.378;2023-04-01T15:01:53;1.27;;;0.90;;
19221;SDS011;9745;50.828;4.378;2023-04-01T15:04:44;1.53;;;0.80;;
19221;SDS011;9745;50.828;4.378;2023-04-01T15:07:16;1.63;;;1.10;;
19221;SDS011;9745;50.828;4.378;2023-04-01T15:12:35;3.33;;;1.10;;
19221;SDS011;9745;50.828;4.378;2023-04-01T15:15:13;2.07;;;1.00;;
19221;SDS011;9745;50.828;4.378;2023-04-01T15:25:21;1.50;;;1.20;;
19221;SDS011;9745;50.828;4.378;2023-04-01T15:30:32;1.63;;;0.90;;
19221;SDS011;9745;50.828;4.378;2023-04-01T15:33:06;3.80;;;1.00;;
19221;SDS011;9745;50.828;4.378;2023-04-01T15:35:43;1.27;;;0.97;;
19221;SDS011;9745;50.828;4.378;2023-04-01T15:38:16;1.47;;;1.00;;
19221;SDS011;9745;50.828;4.378;2023-04-01T15:43:40;2.77;;;1.17;;
19221;SDS011;9745;50.828;4.378;2023-04-01T15:51:36;1.80;;;0.90;;
19221;SDS011;9745;50.828;4.378;2023-04-01T15:54:16;2.80;;;1.20;;
19221;SDS011;9745;50.828;4.378;2023-04-01T15:59:47;1.63;;;1.27;;
19221;SDS011;9745;50.828;4.378;2023-04-01T16:02:32;2.23;;;1.00;;
19221;SDS011;9745;50.828;4.378;2023-04-01T16:05:03;2.20;;;1.20;;
19221;SDS011;9745;50.828;4.378;2023-04-01T16:15:35;1.57;;;1.20;;
19221;SDS011;9745;50.828;4.378;2023-04-01T16:18:13;1.93;;;1.30;;
19221;SDS011;9745;50.828;4.378;2023-04-01T16:20:50;2.50;;;1.20;;
19221;SDS011;9745;50.828;4.378;2023-04-01T16:23:18;1.37;;;1.00;;
19221;SDS011;9745;50.828;4.378;2023-04-01T16:25:49;4.00;;;1.10;;
19221;SDS011;9745;50.828;4.378;2023-04-01T16:28:19;2.00;;;1.20;;
19221;SDS011;9745;50.828;4.378;2023-04-01T16:30:48;1.40;;;0.93;;
19221;SDS011;9745;50.828;4.378;2023-04-01T16:33:22;3.10;;;1.20;;
19221;SDS011;9745;50.828;4.378;2023-04-01T16:38:38;1.83;;;1.17;;
19221;SDS011;9745;50.828;4.378;2023-04-01T16:41:10;2.07;;;1.47;;
19221;SDS011;9745;50.828;4.378;2023-04-01T16:43:44;1.80;;;1.20;;
19221;SDS011;9745;50.828;4.378;2023-04-01T16:54:06;2.47;;;1.57;;
19221;SDS011;9745;50.828;4.378;2023-04-01T16:56:39;2.17;;;1.40;;
19221;SDS011;9745;50.828;4.378;2023-04-01T17:04:19;3.13;;;1.73;;
19221;SDS011;9745;50.828;4.378;2023-04-01T17:09:42;2.67;;;1.50;;
19221;SDS011;9745;50.828;4.378;2023-04-01T17:14:45;4.17;;;2.20;;
19221;SDS011;9745;50.828;4.378;2023-04-01T17:22:36;2.97;;;1.93;;
19221;SDS011;9745;50.828;4.378;2023-04-01T17:25:09;4.43;;;2.50;;
19221;SDS011;9745;50.828;4.378;2023-04-01T17:27:50;3.93;;;2.50;;
19221;SDS011;9745;50.828;4.378;2023-04-01T17:30:26;3.50;;;2.40;;
19221;SDS011;9745;50.828;4.378;2023-04-01T17:35:35;3.17;;;2.30;;
19221;SDS011;9745;50.828;4.378;2023-04-01T17:45:41;6.00;;;3.87;;
19221;SDS011;9745;50.828;4.378;2023-04-01T17:48:22;3.77;;;2.67;;
19221;SDS011;9745;50.828;4.378;2023-04-01T17:51:00;3.80;;;2.57;;
19221;SDS011;9745;50.828;4.378;2023-04-01T18:14:10;5.57;;;3.40;;
19221;SDS011;9745;50.828;4.378;2023-04-01T18:19:17;4.57;;;3.10;;
19221;SDS011;9745;50.828;4.378;2023-04-01T18:21:52;6.37;;;3.20;;
19221;SDS011;9745;50.828;4.378;2023-04-01T18:27:34;5.27;;;3.83;;
19221;SDS011;9745;50.828;4.378;2023-04-01T18:32:48;4.80;;;4.00;;
19221;SDS011;9745;50.828;4.378;2023-04-01T18:35:45;5.83;;;4.73;;
19221;SDS011;9745;50.828;4.378;2023-04-01T18:38:14;6.00;;;4.50;;
19221;SDS011;9745;50.828;4.378;2023-04-01T18:40:51;5.67;;;4.80;;
19221;SDS011;9745;50.828;4.378;2023-04-01T18:43:22;5.97;;;4.60;;
19221;SDS011;9745;50.828;4.378;2023-04-01T18:45:59;9.03;;;4.53;;
19221;SDS011;9745;50.828;4.378;2023-04-01T18:48:33;8.53;;;4.87;;
19221;SDS011;9745;50.828;4.378;2023-04-01T18:51:14;8.13;;;5.43;;
19221;SDS011;9745;50.828;4.378;2023-04-01T18:53:44;10.77;;;5.93;;
19221;SDS011;9745;50.828;4.378;2023-04-01T18:59:12;7.53;;;5.97;;
19221;SDS011;9745;50.828;4.378;2023-04-01T19:01:43;7.30;;;5.60;;
19221;SDS011;9745;50.828;4.378;2023-04-01T19:06:50;9.07;;;6.63;;
19221;SDS011;9745;50.828;4.378;2023-04-01T19:09:25;11.23;;;7.43;;
19221;SDS011;9745;50.828;4.378;2023-04-01T19:17:00;11.63;;;7.90;;
19221;SDS011;9745;50.828;4.378;2023-04-01T19:22:17;12.73;;;9.30;;
19221;SDS011;9745;50.828;4.378;2023-04-01T19:27:32;16.80;;;10.27;;
19221;SDS011;9745;50.828;4.378;2023-04-01T19:35:35;19.40;;;12.20;;
19221;SDS011;9745;50.828;4.378;2023-04-01T19:41:02;29.40;;;14.57;;
19221;SDS011;9745;50.828;4.378;2023-04-01T19:51:37;21.73;;;13.93;;
19221;SDS011;9745;50.828;4.378;2023-04-01T19:53:46;21.20;;;13.07;;
19221;SDS011;9745;50.828;4.378;2023-04-01T19:56:17;22.80;;;11.80;;
19221;SDS011;9745;50.828;4.378;2023-04-01T19:59:03;23.27;;;12.73;;
19221;SDS011;9745;50.828;4.378;2023-04-01T20:01:36;18.13;;;12.30;;
19221;SDS011;9745;50.828;4.378;2023-04-01T20:04:14;22.40;;;11.90;;
19221;SDS011;9745;50.828;4.378;2023-04-01T20:06:44;21.30;;;12.63;;
19221;SDS011;9745;50.828;4.378;2023-04-01T20:09:25;23.20;;;11.87;;
19221;SDS011;9745;50.828;4.378;2023-04-01T20:11:59;19.43;;;11.70;;
19221;SDS011;9745;50.828;4.378;2023-04-01T20:19:28;18.87;;;12.07;;
19221;SDS011;9745;50.828;4.378;2023-04-01T20:21:59;17.40;;;9.83;;
19221;SDS011;9745;50.828;4.378;2023-04-01T20:24:29;18.23;;;9.83;;
19221;SDS011;9745;50.828;4.378;2023-04-01T20:29:35;19.47;;;10.83;;
19221;SDS011;9745;50.828;4.378;2023-04-01T20:32:18;22.67;;;11.10;;
19221;SDS011;9745;50.828;4.378;2023-04-01T20:37:49;22.90;;;11.43;;
19221;SDS011;9745;50.828;4.378;2023-04-01T20:40:26;20.53;;;11.63;;
19221;SDS011;9745;50.828;4.378;2023-04-01T20:43:13;20.77;;;12.10;;
19221;SDS011;9745;50.828;4.378;2023-04-01T20:45:45;25.40;;;12.30;;
19221;SDS011;9745;50.828;4.378;2023-04-01T20:48:20;22.87;;;12.47;;
19221;SDS011;9745;50.828;4.378;2023-04-01T20:50:59;19.07;;;11.77;;
19221;SDS011;9745;50.828;4.378;2023-04-01T20:53:35;18.57;;;11.13;;
19221;SDS011;9745;50.828;4.378;2023-04-01T20:58:43;20.03;;;10.57;;
19221;SDS011;9745;50.828;4.378;2023-04-01T21:03:41;20.30;;;11.33;;
19221;SDS011;9745;50.828;4.378;2023-04-01T21:08:59;19.87;;;11.93;;
19221;SDS011;9745;50.828;4.378;2023-04-01T21:11:50;22.00;;;12.53;;
19221;SDS011;9745;50.828;4.378;2023-04-01T21:24:53;20.10;;;12.27;;
19221;SDS011;9745;50.828;4.378;2023-04-01T21:27:26;19.53;;;12.30;;
19221;SDS011;9745;50.828;4.378;2023-04-01T21:32:52;20.43;;;12.40;;
19221;SDS011;9745;50.828;4.378;2023-04-01T21:35:30;24.80;;;13.10;;
19221;SDS011;9745;50.828;4.378;2023-04-01T21:43:22;24.13;;;13.43;;
19221;SDS011;9745;50.828;4.378;2023-04-01T21:48:58;24.27;;;13.33;;
19221;SDS011;9745;50.828;4.378;2023-04-01T21:51:41;25.27;;;12.00;;
19221;SDS011;9745;50.828;4.378;2023-04-01T22:02:31;20.77;;;10.53;;
19221;SDS011;9745;50.828;4.378;2023-04-01T22:13:06;20.43;;;10.97;;
19221;SDS011;9745;50.828;4.378;2023-04-01T22:20:56;15.90;;;10.43;;
19221;SDS011;9745;50.828;4.378;2023-04-01T22:25:58;15.07;;;10.13;;
19221;SDS011;9745;50.828;4.378;2023-04-01T22:28:29;16.50;;;10.20;;
19221;SDS011;9745;50.828;4.378;2023-04-01T22:30:59;16.97;;;10.03;;
19221;SDS011;9745;50.828;4.378;2023-04-01T22:33:31;17.90;;;10.47;;
19221;SDS011;9745;50.828;4.378;2023-04-01T22:36:05;16.80;;;11.23;;
19221;SDS011;9745;50.828;4.378;2023-04-01T22:43:40;21.17;;;13.73;;
19221;SDS011;9745;50.828;4.378;2023-04-01T22:46:26;19.73;;;13.53;;
19221;SDS011;9745;50.828;4.378;2023-04-01T22:54:02;21.13;;;14.07;;
19221;SDS011;9745;50.828;4.378;2023-04-01T22:56:33;20.00;;;13.57;;
19221;SDS011;9745;50.828;4.378;2023-04-01T23:01:48;27.27;;;15.60;;
19221;SDS011;9745;50.828;4.378;2023-04-01T23:04:16;24.50;;;14.87;;
19221;SDS011;9745;50.828;4.378;2023-04-01T23:06:46;29.53;;;15.57;;
19221;SDS011;9745;50.828;4.378;2023-04-01T23:16:57;17.47;;;12.60;;
19221;SDS011;9745;50.828;4.378;2023-04-01T23:19:25;18.40;;;11.60;;
19221;SDS011;9745;50.828;4.378;2023-04-01T23:21:54;17.87;;;11.40;;
19221;SDS011;9745;50.828;4.378;2023-04-01T23:24:30;18.80;;;12.40;;
19221;SDS011;9745;50.828;4.378;2023-04-01T23:27:01;22.63;;;14.03;;
19221;SDS011;9745;50.828;4.378;2023-04-01T23:29:29;22.87;;;14.57;;
19221;SDS011;9745;50.828;4.378;2023-04-01T23:31:58;22.43;;;13.43;;
19221;SDS011;9745;50.828;4.378;2023-04-01T23:34:34;21.17;;;13.77;;
19221;SDS011;9745;50.828;4.378;2023-04-01T23:37:05;21.17;;;13.37;;
19221;SDS011;9745;50.828;4.378;2023-04-01T23:39:37;23.93;;;15.57;;
19221;SDS011;9745;50.828;4.378;2023-04-01T23:44:30;22.80;;;13.33;;
19221;SDS011;9745;50.828;4.378;2023-04-01T23:46:57;19.40;;;13.30;;
19221;SDS011;9745;50.828;4.378;2023-04-01T23:49:25;20.43;;;13.87;;
19221;SDS011;9745;50.828;4.378;2023-04-01T23:51:54;21.77;;;13.73;;
19221;SDS011;9745;50.828;4.378;2023-04-01T23:54:26;23.27;;;15.30;;
19221;SDS011;9745;50.828;4.378;2023-04-01T23:56:55;26.70;;;15.77;;
19221;SDS011;9745;50.828;4.378;2023-04-01T23:59:29;25.77;;;16.07;;
